Terminal Aerodrome Forecast
Issued by NWS

Home | Current Version | Previous Version | Text Only | Print | Product List | Glossary Off
Versions: 1 2 3 4 5 6 7 8 9 10 11 12 13 14 15 16 17 18

029
FTUS43 KABR 212059 AAC
TAFATY
TAF AMD
KATY 212059Z 2121/2218 33013KT P6SM BKN150
     FM212300 33009KT P6SM SCT250=

USA.gov is the U.S. government's official web portal to all federal, state and local government web resources and services.